sensor_id;sensor_type;location;lat;lon;timestamp;temperature;humidity
48768;DHT22;34933;40.968;14.538;2022-09-21T00:02:31;19.60;95.80
48768;DHT22;34933;40.968;14.538;2022-09-21T00:05:16;19.50;95.90
48768;DHT22;34933;40.968;14.538;2022-09-21T00:08:05;19.50;96.00
48768;DHT22;34933;40.968;14.538;2022-09-21T00:10:50;19.50;96.10
48768;DHT22;34933;40.968;14.538;2022-09-21T00:13:34;19.50;96.30
48768;DHT22;34933;40.968;14.538;2022-09-21T00:16:21;19.50;96.60
48768;DHT22;34933;40.968;14.538;2022-09-21T00:19:06;19.50;96.60
48768;DHT22;34933;40.968;14.538;2022-09-21T00:21:54;19.50;96.00
48768;DHT22;34933;40.968;14.538;2022-09-21T00:24:39;19.40;96.50
48768;DHT22;34933;40.968;14.538;2022-09-21T00:27:23;19.40;96.60
48768;DHT22;34933;40.968;14.538;2022-09-21T00:30:13;19.40;96.70
48768;DHT22;34933;40.968;14.538;2022-09-21T00:32:58;19.40;96.60
48768;DHT22;34933;40.968;14.538;2022-09-21T00:35:43;19.40;95.80
48768;DHT22;34933;40.968;14.538;2022-09-21T00:38:27;19.30;95.70
48768;DHT22;34933;40.968;14.538;2022-09-21T00:41:12;19.30;95.70
48768;DHT22;34933;40.968;14.538;2022-09-21T00:47:09;19.20;95.70
48768;DHT22;34933;40.968;14.538;2022-09-21T00:49:56;19.30;95.10
48768;DHT22;34933;40.968;14.538;2022-09-21T00:52:51;19.30;94.50
48768;DHT22;34933;40.968;14.538;2022-09-21T00:55:45;19.30;94.30
48768;DHT22;34933;40.968;14.538;2022-09-21T00:58:39;19.10;94.70
48768;DHT22;34933;40.968;14.538;2022-09-21T01:01:25;19.10;94.40
48768;DHT22;34933;40.968;14.538;2022-09-21T01:04:10;19.20;94.80
48768;DHT22;34933;40.968;14.538;2022-09-21T01:06:56;19.20;94.60
48768;DHT22;34933;40.968;14.538;2022-09-21T01:09:43;19.20;94.60
48768;DHT22;34933;40.968;14.538;2022-09-21T01:18:27;19.20;94.30
48768;DHT22;34933;40.968;14.538;2022-09-21T01:21:24;19.10;93.70
48768;DHT22;34933;40.968;14.538;2022-09-21T01:30:39;19.20;93.60
48768;DHT22;34933;40.968;14.538;2022-09-21T01:33:46;19.30;93.50
48768;DHT22;34933;40.968;14.538;2022-09-21T01:36:32;19.30;93.60
48768;DHT22;34933;40.968;14.538;2022-09-21T01:39:18;19.40;93.50
48768;DHT22;34933;40.968;14.538;2022-09-21T01:42:05;19.40;93.20
48768;DHT22;34933;40.968;14.538;2022-09-21T01:44:50;19.50;92.80
48768;DHT22;34933;40.968;14.538;2022-09-21T01:47:38;19.50;92.80
48768;DHT22;34933;40.968;14.538;2022-09-21T01:50:27;19.50;91.60
48768;DHT22;34933;40.968;14.538;2022-09-21T01:53:27;19.60;91.50
48768;DHT22;34933;40.968;14.538;2022-09-21T01:56:24;19.60;91.00
48768;DHT22;34933;40.968;14.538;2022-09-21T02:02:10;19.60;90.90
48768;DHT22;34933;40.968;14.538;2022-09-21T02:04:57;19.60;91.30
48768;DHT22;34933;40.968;14.538;2022-09-21T02:07:42;19.60;91.30
48768;DHT22;34933;40.968;14.538;2022-09-21T02:10:34;19.60;90.90
48768;DHT22;34933;40.968;14.538;2022-09-21T02:13:22;19.70;91.30
48768;DHT22;34933;40.968;14.538;2022-09-21T02:25:51;19.70;91.70
48768;DHT22;34933;40.968;14.538;2022-09-21T02:29:21;19.70;92.10
48768;DHT22;34933;40.968;14.538;2022-09-21T02:43:58;19.70;92.90
48768;DHT22;34933;40.968;14.538;2022-09-21T02:46:56;19.70;93.10
48768;DHT22;34933;40.968;14.538;2022-09-21T02:49:47;19.70;93.10
48768;DHT22;34933;40.968;14.538;2022-09-21T02:52:37;19.80;92.90
48768;DHT22;34933;40.968;14.538;2022-09-21T02:55:24;19.80;92.90
48768;DHT22;34933;40.968;14.538;2022-09-21T02:58:11;19.80;92.70
48768;DHT22;34933;40.968;14.538;2022-09-21T03:00:58;19.80;92.60
48768;DHT22;34933;40.968;14.538;2022-09-21T03:03:43;19.80;92.70
48768;DHT22;34933;40.968;14.538;2022-09-21T03:06:28;19.80;92.50
48768;DHT22;34933;40.968;14.538;2022-09-21T03:09:12;19.90;92.50
48768;DHT22;34933;40.968;14.538;2022-09-21T03:11:57;19.90;92.50
48768;DHT22;34933;40.968;14.538;2022-09-21T03:14:41;19.80;92.40
48768;DHT22;34933;40.968;14.538;2022-09-21T03:17:26;19.80;92.50
48768;DHT22;34933;40.968;14.538;2022-09-21T03:20:11;19.80;92.60
48768;DHT22;34933;40.968;14.538;2022-09-21T03:22:55;19.80;92.60
48768;DHT22;34933;40.968;14.538;2022-09-21T03:25:43;19.80;92.60
48768;DHT22;34933;40.968;14.538;2022-09-21T03:28:28;19.70;92.60
48768;DHT22;34933;40.968;14.538;2022-09-21T03:31:13;19.70;92.80
48768;DHT22;34933;40.968;14.538;2022-09-21T03:33:57;19.70;92.70
48768;DHT22;34933;40.968;14.538;2022-09-21T03:36:42;19.60;92.80
48768;DHT22;34933;40.968;14.538;2022-09-21T03:39:26;19.60;92.70
48768;DHT22;34933;40.968;14.538;2022-09-21T03:42:11;19.60;92.80
48768;DHT22;34933;40.968;14.538;2022-09-21T03:44:57;19.60;92.60
48768;DHT22;34933;40.968;14.538;2022-09-21T03:47:42;19.50;92.60
48768;DHT22;34933;40.968;14.538;2022-09-21T03:50:28;19.50;92.70
48768;DHT22;34933;40.968;14.538;2022-09-21T03:53:13;19.50;92.80
48768;DHT22;34933;40.968;14.538;2022-09-21T03:55:58;19.50;92.80
48768;DHT22;34933;40.968;14.538;2022-09-21T03:58:42;19.50;92.90
48768;DHT22;34933;40.968;14.538;2022-09-21T04:01:27;19.50;93.00
48768;DHT22;34933;40.968;14.538;2022-09-21T04:04:12;19.60;92.90
48768;DHT22;34933;40.968;14.538;2022-09-21T04:06:58;19.50;93.40
48768;DHT22;34933;40.968;14.538;2022-09-21T04:09:42;19.60;93.00
48768;DHT22;34933;40.968;14.538;2022-09-21T04:12:27;19.60;93.30
48768;DHT22;34933;40.968;14.538;2022-09-21T04:15:13;19.50;93.20
48768;DHT22;34933;40.968;14.538;2022-09-21T04:17:58;19.40;93.60
48768;DHT22;34933;40.968;14.538;2022-09-21T04:20:42;19.40;93.30
48768;DHT22;34933;40.968;14.538;2022-09-21T04:23:27;19.30;93.80
48768;DHT22;34933;40.968;14.538;2022-09-21T04:26:31;19.40;93.80
48768;DHT22;34933;40.968;14.538;2022-09-21T04:29:16;19.40;93.20
48768;DHT22;34933;40.968;14.538;2022-09-21T04:32:02;19.40;93.40
48768;DHT22;34933;40.968;14.538;2022-09-21T04:34:46;19.30;93.30
48768;DHT22;34933;40.968;14.538;2022-09-21T04:37:31;19.40;93.60
48768;DHT22;34933;40.968;14.538;2022-09-21T04:40:16;19.40;93.50
48768;DHT22;34933;40.968;14.538;2022-09-21T04:43:00;19.40;93.70
48768;DHT22;34933;40.968;14.538;2022-09-21T04:45:45;19.40;94.00
48768;DHT22;34933;40.968;14.538;2022-09-21T04:48:29;19.50;93.70
48768;DHT22;34933;40.968;14.538;2022-09-21T04:51:15;19.50;93.80
48768;DHT22;34933;40.968;14.538;2022-09-21T04:54:00;19.40;93.60
48768;DHT22;34933;40.968;14.538;2022-09-21T04:56:45;19.40;93.30
48768;DHT22;34933;40.968;14.538;2022-09-21T04:59:29;19.50;93.40
48768;DHT22;34933;40.968;14.538;2022-09-21T05:02:14;19.50;93.50
48768;DHT22;34933;40.968;14.538;2022-09-21T05:04:59;19.50;93.60
48768;DHT22;34933;40.968;14.538;2022-09-21T05:07:44;19.50;93.70
48768;DHT22;34933;40.968;14.538;2022-09-21T05:10:29;19.50;93.60
48768;DHT22;34933;40.968;14.538;2022-09-21T05:13:13;19.50;93.70
48768;DHT22;34933;40.968;14.538;2022-09-21T05:15:58;19.50;93.80
48768;DHT22;34933;40.968;14.538;2022-09-21T05:18:43;19.50;94.00
48768;DHT22;34933;40.968;14.538;2022-09-21T05:21:28;19.50;94.00
48768;DHT22;34933;40.968;14.538;2022-09-21T05:24:14;19.50;94.10
48768;DHT22;34933;40.968;14.538;2022-09-21T05:27:00;19.40;94.30
48768;DHT22;34933;40.968;14.538;2022-09-21T05:29:45;19.40;94.40
48768;DHT22;34933;40.968;14.538;2022-09-21T05:32:47;19.40;94.30
48768;DHT22;34933;40.968;14.538;2022-09-21T05:35:41;19.40;94.50
48768;DHT22;34933;40.968;14.538;2022-09-21T05:38:28;19.40;94.50
48768;DHT22;34933;40.968;14.538;2022-09-21T05:41:13;19.40;94.70
48768;DHT22;34933;40.968;14.538;2022-09-21T05:43:58;19.40;94.70
48768;DHT22;34933;40.968;14.538;2022-09-21T05:55:57;19.60;94.70
48768;DHT22;34933;40.968;14.538;2022-09-21T05:58:55;19.70;94.60
48768;DHT22;34933;40.968;14.538;2022-09-21T06:02:12;19.70;94.40
48768;DHT22;34933;40.968;14.538;2022-09-21T06:05:00;19.60;94.40
48768;DHT22;34933;40.968;14.538;2022-09-21T06:07:45;19.70;94.30
48768;DHT22;34933;40.968;14.538;2022-09-21T06:10:33;19.80;94.10
48768;DHT22;34933;40.968;14.538;2022-09-21T06:13:18;19.70;94.30
48768;DHT22;34933;40.968;14.538;2022-09-21T06:16:03;19.70;94.20
48768;DHT22;34933;40.968;14.538;2022-09-21T06:18:48;19.70;94.20
48768;DHT22;34933;40.968;14.538;2022-09-21T06:21:32;19.80;94.40
48768;DHT22;34933;40.968;14.538;2022-09-21T06:24:17;19.80;94.20
48768;DHT22;34933;40.968;14.538;2022-09-21T06:27:02;19.80;93.90
48768;DHT22;34933;40.968;14.538;2022-09-21T06:29:46;19.90;94.20
48768;DHT22;34933;40.968;14.538;2022-09-21T06:32:31;19.90;93.80
48768;DHT22;34933;40.968;14.538;2022-09-21T06:35:16;19.90;94.10
48768;DHT22;34933;40.968;14.538;2022-09-21T06:38:04;20.00;93.40
48768;DHT22;34933;40.968;14.538;2022-09-21T06:40:49;20.00;94.20
48768;DHT22;34933;40.968;14.538;2022-09-21T06:43:34;20.00;93.90
48768;DHT22;34933;40.968;14.538;2022-09-21T06:46:19;20.10;93.60
48768;DHT22;34933;40.968;14.538;2022-09-21T06:49:03;20.10;93.40
48768;DHT22;34933;40.968;14.538;2022-09-21T06:51:48;20.20;93.50
48768;DHT22;34933;40.968;14.538;2022-09-21T06:54:33;20.20;93.70
48768;DHT22;34933;40.968;14.538;2022-09-21T06:57:17;20.20;93.30
48768;DHT22;34933;40.968;14.538;2022-09-21T07:00:02;20.20;93.20
48768;DHT22;34933;40.968;14.538;2022-09-21T07:02:48;20.20;93.50
48768;DHT22;34933;40.968;14.538;2022-09-21T07:05:32;20.20;93.30
48768;DHT22;34933;40.968;14.538;2022-09-21T07:08:17;20.20;93.60
48768;DHT22;34933;40.968;14.538;2022-09-21T07:11:01;20.30;93.80
48768;DHT22;34933;40.968;14.538;2022-09-21T07:13:46;20.30;94.00
48768;DHT22;34933;40.968;14.538;2022-09-21T07:16:31;20.30;93.80
48768;DHT22;34933;40.968;14.538;2022-09-21T07:19:16;20.30;93.80
48768;DHT22;34933;40.968;14.538;2022-09-21T07:22:01;20.30;93.90
48768;DHT22;34933;40.968;14.538;2022-09-21T07:24:45;20.30;93.20
48768;DHT22;34933;40.968;14.538;2022-09-21T07:27:31;20.40;93.40
48768;DHT22;34933;40.968;14.538;2022-09-21T07:30:16;20.40;93.50
48768;DHT22;34933;40.968;14.538;2022-09-21T07:33:00;20.50;93.40
48768;DHT22;34933;40.968;14.538;2022-09-21T07:35:54;20.60;93.20
48768;DHT22;34933;40.968;14.538;2022-09-21T07:38:43;20.60;93.40
48768;DHT22;34933;40.968;14.538;2022-09-21T07:41:27;20.60;93.70
48768;DHT22;34933;40.968;14.538;2022-09-21T07:44:12;20.70;92.70
48768;DHT22;34933;40.968;14.538;2022-09-21T07:46:56;20.80;93.00
48768;DHT22;34933;40.968;14.538;2022-09-21T07:49:41;20.80;93.30
48768;DHT22;34933;40.968;14.538;2022-09-21T07:52:26;20.80;93.10
48768;DHT22;34933;40.968;14.538;2022-09-21T07:55:11;20.80;93.60
48768;DHT22;34933;40.968;14.538;2022-09-21T07:57:55;20.80;93.70
48768;DHT22;34933;40.968;14.538;2022-09-21T08:00:58;20.90;93.60
48768;DHT22;34933;40.968;14.538;2022-09-21T08:03:49;21.00;93.30
48768;DHT22;34933;40.968;14.538;2022-09-21T08:06:36;20.90;93.40
48768;DHT22;34933;40.968;14.538;2022-09-21T08:09:23;20.90;93.40
48768;DHT22;34933;40.968;14.538;2022-09-21T08:12:08;20.80;93.80
48768;DHT22;34933;40.968;14.538;2022-09-21T08:14:54;21.00;93.60
48768;DHT22;34933;40.968;14.538;2022-09-21T08:17:38;21.00;93.80
48768;DHT22;34933;40.968;14.538;2022-09-21T08:20:23;21.20;93.30
48768;DHT22;34933;40.968;14.538;2022-09-21T08:23:08;21.30;93.00
48768;DHT22;34933;40.968;14.538;2022-09-21T08:25:57;21.30;93.30
48768;DHT22;34933;40.968;14.538;2022-09-21T08:28:44;21.20;93.40
48768;DHT22;34933;40.968;14.538;2022-09-21T08:31:32;21.30;93.30
48768;DHT22;34933;40.968;14.538;2022-09-21T08:34:16;21.30;92.60
48768;DHT22;34933;40.968;14.538;2022-09-21T08:37:03;21.40;92.80
48768;DHT22;34933;40.968;14.538;2022-09-21T08:39:47;21.50;92.30
48768;DHT22;34933;40.968;14.538;2022-09-21T08:42:39;21.40;92.50
48768;DHT22;34933;40.968;14.538;2022-09-21T08:45:39;21.60;92.80
48768;DHT22;34933;40.968;14.538;2022-09-21T08:48:27;21.70;92.10
48768;DHT22;34933;40.968;14.538;2022-09-21T08:51:19;21.70;92.50
48768;DHT22;34933;40.968;14.538;2022-09-21T08:54:12;21.70;91.80
48768;DHT22;34933;40.968;14.538;2022-09-21T08:56:58;21.80;92.30
48768;DHT22;34933;40.968;14.538;2022-09-21T08:59:47;21.80;91.80
48768;DHT22;34933;40.968;14.538;2022-09-21T09:03:03;21.80;92.20
48768;DHT22;34933;40.968;14.538;2022-09-21T09:05:48;21.90;91.90
48768;DHT22;34933;40.968;14.538;2022-09-21T09:08:49;22.00;92.30
48768;DHT22;34933;40.968;14.538;2022-09-21T09:18:08;22.10;92.90
48768;DHT22;34933;40.968;14.538;2022-09-21T09:21:05;22.00;92.90
48768;DHT22;34933;40.968;14.538;2022-09-21T09:23:59;22.20;93.10
48768;DHT22;34933;40.968;14.538;2022-09-21T09:26:58;22.20;92.60
48768;DHT22;34933;40.968;14.538;2022-09-21T09:29:56;22.40;93.20
48768;DHT22;34933;40.968;14.538;2022-09-21T09:35:59;22.60;92.80
48768;DHT22;34933;40.968;14.538;2022-09-21T09:39:12;22.50;92.40
48768;DHT22;34933;40.968;14.538;2022-09-21T09:45:38;22.40;92.60
48768;DHT22;34933;40.968;14.538;2022-09-21T09:51:46;22.70;91.50
48768;DHT22;34933;40.968;14.538;2022-09-21T09:54:33;22.70;91.60
48768;DHT22;34933;40.968;14.538;2022-09-21T09:57:28;22.70;91.10
48768;DHT22;34933;40.968;14.538;2022-09-21T10:00:15;22.80;91.70
48768;DHT22;34933;40.968;14.538;2022-09-21T10:03:00;22.60;91.10
48768;DHT22;34933;40.968;14.538;2022-09-21T10:05:45;22.70;91.50
48768;DHT22;34933;40.968;14.538;2022-09-21T10:08:44;22.80;90.80
48768;DHT22;34933;40.968;14.538;2022-09-21T10:11:36;23.00;90.50
48768;DHT22;34933;40.968;14.538;2022-09-21T10:14:23;23.00;90.80
48768;DHT22;34933;40.968;14.538;2022-09-21T10:17:15;23.10;91.00
48768;DHT22;34933;40.968;14.538;2022-09-21T10:20:01;23.30;91.40
48768;DHT22;34933;40.968;14.538;2022-09-21T10:22:53;23.50;90.80
48768;DHT22;34933;40.968;14.538;2022-09-21T10:25:40;23.50;90.90
48768;DHT22;34933;40.968;14.538;2022-09-21T10:28:26;23.60;91.00
48768;DHT22;34933;40.968;14.538;2022-09-21T10:31:15;23.50;90.60
48768;DHT22;34933;40.968;14.538;2022-09-21T10:34:10;23.70;91.30
48768;DHT22;34933;40.968;14.538;2022-09-21T10:37:26;23.50;90.90
48768;DHT22;34933;40.968;14.538;2022-09-21T10:43:03;23.90;90.40
48768;DHT22;34933;40.968;14.538;2022-09-21T10:45:53;24.00;90.20
48768;DHT22;34933;40.968;14.538;2022-09-21T10:48:39;24.10;90.20
48768;DHT22;34933;40.968;14.538;2022-09-21T10:51:29;24.20;90.70
48768;DHT22;34933;40.968;14.538;2022-09-21T10:54:21;24.30;90.20
48768;DHT22;34933;40.968;14.538;2022-09-21T10:57:06;24.20;90.50
48768;DHT22;34933;40.968;14.538;2022-09-21T10:59:52;24.30;90.10
48768;DHT22;34933;40.968;14.538;2022-09-21T11:02:36;24.50;89.20
48768;DHT22;34933;40.968;14.538;2022-09-21T11:05:31;24.60;88.70
48768;DHT22;34933;40.968;14.538;2022-09-21T11:08:23;24.70;88.60
48768;DHT22;34933;40.968;14.538;2022-09-21T11:26:36;25.20;85.90
48768;DHT22;34933;40.968;14.538;2022-09-21T11:35:37;25.30;85.30
48768;DHT22;34933;40.968;14.538;2022-09-21T11:53:37;25.40;84.80
48768;DHT22;34933;40.968;14.538;2022-09-21T11:56:52;25.00;83.90
48768;DHT22;34933;40.968;14.538;2022-09-21T12:00:02;25.10;85.60
48768;DHT22;34933;40.968;14.538;2022-09-21T12:13:36;25.30;88.90
48768;DHT22;34933;40.968;14.538;2022-09-21T12:22:47;25.60;86.40
48768;DHT22;34933;40.968;14.538;2022-09-21T12:25:42;25.80;86.40
48768;DHT22;34933;40.968;14.538;2022-09-21T12:31:35;25.90;84.20
48768;DHT22;34933;40.968;14.538;2022-09-21T12:34:25;25.50;84.90
48768;DHT22;34933;40.968;14.538;2022-09-21T12:37:20;25.40;85.00
48768;DHT22;34933;40.968;14.538;2022-09-21T12:46:21;25.60;84.20
48768;DHT22;34933;40.968;14.538;2022-09-21T12:49:25;26.20;82.10
48768;DHT22;34933;40.968;14.538;2022-09-21T12:52:21;26.50;83.50
48768;DHT22;34933;40.968;14.538;2022-09-21T12:55:39;26.70;81.40
48768;DHT22;34933;40.968;14.538;2022-09-21T13:01:27;26.70;81.60
48768;DHT22;34933;40.968;14.538;2022-09-21T13:07:38;26.10;80.80
48768;DHT22;34933;40.968;14.538;2022-09-21T13:16:31;26.10;80.50
48768;DHT22;34933;40.968;14.538;2022-09-21T13:19:21;26.60;80.60
48768;DHT22;34933;40.968;14.538;2022-09-21T13:22:10;27.00;79.20
48768;DHT22;34933;40.968;14.538;2022-09-21T13:25:04;27.40;78.70
48768;DHT22;34933;40.968;14.538;2022-09-21T13:34:30;27.60;80.00
48768;DHT22;34933;40.968;14.538;2022-09-21T13:42:48;28.10;79.60
48768;DHT22;34933;40.968;14.538;2022-09-21T13:48:25;27.70;80.20
48768;DHT22;34933;40.968;14.538;2022-09-21T13:51:13;28.10;79.60
48768;DHT22;34933;40.968;14.538;2022-09-21T13:54:00;27.50;81.10
48768;DHT22;34933;40.968;14.538;2022-09-21T13:56:45;27.90;80.40
48768;DHT22;34933;40.968;14.538;2022-09-21T13:59:31;28.10;79.90
48768;DHT22;34933;40.968;14.538;2022-09-21T14:02:38;27.60;81.30
48768;DHT22;34933;40.968;14.538;2022-09-21T14:14:07;27.70;82.00
48768;DHT22;34933;40.968;14.538;2022-09-21T14:17:00;26.90;83.00
48768;DHT22;34933;40.968;14.538;2022-09-21T14:22:35;27.10;82.50
48768;DHT22;34933;40.968;14.538;2022-09-21T14:25:25;27.00;82.40
48768;DHT22;34933;40.968;14.538;2022-09-21T14:28:11;27.00;83.10
48768;DHT22;34933;40.968;14.538;2022-09-21T14:31:00;26.80;83.20
48768;DHT22;34933;40.968;14.538;2022-09-21T14:33:48;27.70;82.10
48768;DHT22;34933;40.968;14.538;2022-09-21T14:36:43;27.30;82.10
48768;DHT22;34933;40.968;14.538;2022-09-21T14:39:35;27.10;82.20
48768;DHT22;34933;40.968;14.538;2022-09-21T14:42:26;27.10;83.50
48768;DHT22;34933;40.968;14.538;2022-09-21T14:45:16;26.00;84.60
48768;DHT22;34933;40.968;14.538;2022-09-21T14:48:09;26.70;83.90
48768;DHT22;34933;40.968;14.538;2022-09-21T14:57:37;27.10;80.30
48768;DHT22;34933;40.968;14.538;2022-09-21T15:00:42;26.40;81.00
48768;DHT22;34933;40.968;14.538;2022-09-21T15:10:18;26.20;82.70
48768;DHT22;34933;40.968;14.538;2022-09-21T15:13:44;26.70;82.40
48768;DHT22;34933;40.968;14.538;2022-09-21T15:16:41;26.10;82.10
48768;DHT22;34933;40.968;14.538;2022-09-21T15:19:27;26.20;81.60
48768;DHT22;34933;40.968;14.538;2022-09-21T15:22:20;26.30;82.20
48768;DHT22;34933;40.968;14.538;2022-09-21T15:25:11;26.50;81.50
48768;DHT22;34933;40.968;14.538;2022-09-21T15:27:56;27.00;80.60
48768;DHT22;34933;40.968;14.538;2022-09-21T15:30:42;26.60;80.70
48768;DHT22;34933;40.968;14.538;2022-09-21T15:33:29;26.70;81.40
48768;DHT22;34933;40.968;14.538;2022-09-21T15:36:25;26.30;81.40
48768;DHT22;34933;40.968;14.538;2022-09-21T15:39:30;26.00;81.10
48768;DHT22;34933;40.968;14.538;2022-09-21T15:42:17;26.40;80.40
48768;DHT22;34933;40.968;14.538;2022-09-21T15:45:16;26.50;79.80
48768;DHT22;34933;40.968;14.538;2022-09-21T15:48:01;26.30;80.50
48768;DHT22;34933;40.968;14.538;2022-09-21T15:51:00;26.10;81.20
48768;DHT22;34933;40.968;14.538;2022-09-21T15:56:58;26.10;82.00
48768;DHT22;34933;40.968;14.538;2022-09-21T15:59:45;25.60;82.60
48768;DHT22;34933;40.968;14.538;2022-09-21T16:02:36;25.10;83.90
48768;DHT22;34933;40.968;14.538;2022-09-21T16:05:22;24.50;84.50
48768;DHT22;34933;40.968;14.538;2022-09-21T16:08:29;23.80;86.30
48768;DHT22;34933;40.968;14.538;2022-09-21T16:14:12;22.50;88.00
48768;DHT22;34933;40.968;14.538;2022-09-21T16:20:21;22.20;89.90
48768;DHT22;34933;40.968;14.538;2022-09-21T16:23:21;22.00;90.60
48768;DHT22;34933;40.968;14.538;2022-09-21T16:26:18;21.80;90.50
48768;DHT22;34933;40.968;14.538;2022-09-21T16:32:19;21.40;91.00
48768;DHT22;34933;40.968;14.538;2022-09-21T16:35:30;21.20;90.80
48768;DHT22;34933;40.968;14.538;2022-09-21T16:38:21;21.10;90.70
48768;DHT22;34933;40.968;14.538;2022-09-21T16:41:06;20.90;90.50
48768;DHT22;34933;40.968;14.538;2022-09-21T16:43:52;20.80;90.40
48768;DHT22;34933;40.968;14.538;2022-09-21T16:46:40;20.70;90.20
48768;DHT22;34933;40.968;14.538;2022-09-21T16:49:29;20.80;90.30
48768;DHT22;34933;40.968;14.538;2022-09-21T16:52:18;20.60;90.60
48768;DHT22;34933;40.968;14.538;2022-09-21T16:55:02;20.50;90.90
48768;DHT22;34933;40.968;14.538;2022-09-21T16:57:47;20.50;90.50
48768;DHT22;34933;40.968;14.538;2022-09-21T17:00:39;20.30;91.20
48768;DHT22;34933;40.968;14.538;2022-09-21T17:03:23;20.20;91.40
48768;DHT22;34933;40.968;14.538;2022-09-21T17:06:16;20.00;91.70
48768;DHT22;34933;40.968;14.538;2022-09-21T17:09:07;19.90;91.60
48768;DHT22;34933;40.968;14.538;2022-09-21T17:11:54;19.80;91.90
48768;DHT22;34933;40.968;14.538;2022-09-21T17:14:43;19.70;91.80
48768;DHT22;34933;40.968;14.538;2022-09-21T17:17:27;19.60;91.60
48768;DHT22;34933;40.968;14.538;2022-09-21T17:20:19;19.50;91.20
48768;DHT22;34933;40.968;14.538;2022-09-21T17:23:07;19.50;90.70
48768;DHT22;34933;40.968;14.538;2022-09-21T17:25:51;19.50;90.80
48768;DHT22;34933;40.968;14.538;2022-09-21T17:28:36;19.40;90.10
48768;DHT22;34933;40.968;14.538;2022-09-21T17:31:21;19.40;90.30
48768;DHT22;34933;40.968;14.538;2022-09-21T17:34:08;19.40;90.10
48768;DHT22;34933;40.968;14.538;2022-09-21T17:36:54;19.40;89.00
48768;DHT22;34933;40.968;14.538;2022-09-21T17:39:39;19.30;88.20
48768;DHT22;34933;40.968;14.538;2022-09-21T17:42:25;19.30;89.00
48768;DHT22;34933;40.968;14.538;2022-09-21T17:45:26;19.30;89.30
48768;DHT22;34933;40.968;14.538;2022-09-21T17:48:20;19.20;89.00
48768;DHT22;34933;40.968;14.538;2022-09-21T17:51:05;19.20;89.40
48768;DHT22;34933;40.968;14.538;2022-09-21T17:53:50;19.10;89.50
48768;DHT22;34933;40.968;14.538;2022-09-21T17:56:46;19.10;89.20
48768;DHT22;34933;40.968;14.538;2022-09-21T17:59:33;19.00;89.50
48768;DHT22;34933;40.968;14.538;2022-09-21T18:02:23;19.00;89.70
48768;DHT22;34933;40.968;14.538;2022-09-21T18:05:34;19.00;89.90
48768;DHT22;34933;40.968;14.538;2022-09-21T18:08:19;18.90;90.00
48768;DHT22;34933;40.968;14.538;2022-09-21T18:23:28;18.70;90.20
48768;DHT22;34933;40.968;14.538;2022-09-21T18:26:16;18.70;90.20
48768;DHT22;34933;40.968;14.538;2022-09-21T18:29:01;18.60;90.30
48768;DHT22;34933;40.968;14.538;2022-09-21T18:38:36;18.50;90.20
48768;DHT22;34933;40.968;14.538;2022-09-21T18:44:28;18.50;89.80
48768;DHT22;34933;40.968;14.538;2022-09-21T18:47:26;18.50;89.20
48768;DHT22;34933;40.968;14.538;2022-09-21T18:50:23;18.50;90.10
48768;DHT22;34933;40.968;14.538;2022-09-21T18:55:55;18.40;90.20
48768;DHT22;34933;40.968;14.538;2022-09-21T18:58:41;18.40;90.30
48768;DHT22;34933;40.968;14.538;2022-09-21T19:01:29;18.30;90.30
48768;DHT22;34933;40.968;14.538;2022-09-21T19:04:17;18.30;90.50
48768;DHT22;34933;40.968;14.538;2022-09-21T19:10:13;18.30;90.70
48768;DHT22;34933;40.968;14.538;2022-09-21T19:18:49;18.10;91.10
48768;DHT22;34933;40.968;14.538;2022-09-21T19:22:17;18.10;91.30
48768;DHT22;34933;40.968;14.538;2022-09-21T19:25:36;18.10;91.30
48768;DHT22;34933;40.968;14.538;2022-09-21T19:31:18;18.10;91.60
48768;DHT22;34933;40.968;14.538;2022-09-21T19:34:18;18.10;91.40
48768;DHT22;34933;40.968;14.538;2022-09-21T19:37:03;18.00;91.50
48768;DHT22;34933;40.968;14.538;2022-09-21T19:39:48;18.00;91.20
48768;DHT22;34933;40.968;14.538;2022-09-21T19:48:49;18.00;91.10
48768;DHT22;34933;40.968;14.538;2022-09-21T19:51:48;18.00;91.50
48768;DHT22;34933;40.968;14.538;2022-09-21T19:54:33;18.00;91.30
48768;DHT22;34933;40.968;14.538;2022-09-21T19:57:36;18.00;90.90
48768;DHT22;34933;40.968;14.538;2022-09-21T20:00:40;18.00;90.30
48768;DHT22;34933;40.968;14.538;2022-09-21T20:03:47;18.00;90.90
48768;DHT22;34933;40.968;14.538;2022-09-21T20:06:43;18.00;90.60
48768;DHT22;34933;40.968;14.538;2022-09-21T20:09:43;18.00;91.20
48768;DHT22;34933;40.968;14.538;2022-09-21T20:12:36;17.90;90.90
48768;DHT22;34933;40.968;14.538;2022-09-21T20:15:46;17.90;90.70
48768;DHT22;34933;40.968;14.538;2022-09-21T20:18:56;17.90;91.20
48768;DHT22;34933;40.968;14.538;2022-09-21T20:21:44;17.90;91.60
48768;DHT22;34933;40.968;14.538;2022-09-21T20:24:35;17.90;91.80
48768;DHT22;34933;40.968;14.538;2022-09-21T20:27:39;17.80;92.00
48768;DHT22;34933;40.968;14.538;2022-09-21T20:30:28;17.80;91.90
48768;DHT22;34933;40.968;14.538;2022-09-21T20:33:17;17.80;92.00
48768;DHT22;34933;40.968;14.538;2022-09-21T20:36:08;17.80;92.10
48768;DHT22;34933;40.968;14.538;2022-09-21T20:38:52;17.80;92.10
48768;DHT22;34933;40.968;14.538;2022-09-21T20:41:37;17.80;92.20
48768;DHT22;34933;40.968;14.538;2022-09-21T20:44:22;17.80;92.30
48768;DHT22;34933;40.968;14.538;2022-09-21T20:47:07;17.70;92.20
48768;DHT22;34933;40.968;14.538;2022-09-21T20:49:52;17.70;92.50
48768;DHT22;34933;40.968;14.538;2022-09-21T20:52:37;17.70;92.20
48768;DHT22;34933;40.968;14.538;2022-09-21T20:55:24;17.70;92.20
48768;DHT22;34933;40.968;14.538;2022-09-21T20:58:10;17.70;92.20
48768;DHT22;34933;40.968;14.538;2022-09-21T21:01:02;17.70;92.20
48768;DHT22;34933;40.968;14.538;2022-09-21T21:03:46;17.60;92.20
48768;DHT22;34933;40.968;14.538;2022-09-21T21:06:31;17.70;92.30
48768;DHT22;34933;40.968;14.538;2022-09-21T21:09:15;17.70;92.20
48768;DHT22;34933;40.968;14.538;2022-09-21T21:12:00;17.70;92.40
48768;DHT22;34933;40.968;14.538;2022-09-21T21:14:45;17.60;92.40
48768;DHT22;34933;40.968;14.538;2022-09-21T21:17:29;17.50;92.50
48768;DHT22;34933;40.968;14.538;2022-09-21T21:20:15;17.60;92.40
48768;DHT22;34933;40.968;14.538;2022-09-21T21:23:00;17.60;92.20
48768;DHT22;34933;40.968;14.538;2022-09-21T21:25:44;17.60;92.10
48768;DHT22;34933;40.968;14.538;2022-09-21T21:28:29;17.60;91.80
48768;DHT22;34933;40.968;14.538;2022-09-21T21:31:14;17.70;92.00
48768;DHT22;34933;40.968;14.538;2022-09-21T21:33:58;17.60;92.10